createdAt,value
2019-02-19T00:00:56.063Z,6.49
2019-02-19T00:03:25.148Z,6.84
2019-02-19T00:05:54.254Z,6.57
2019-02-19T00:08:23.344Z,6.52
2019-02-19T00:10:52.432Z,6.43
2019-02-19T00:13:21.509Z,6.44
2019-02-19T00:15:50.612Z,6.45
2019-02-19T00:18:19.692Z,6.52
2019-02-19T00:20:48.789Z,6.32
2019-02-19T00:23:17.861Z,6.32
2019-02-19T00:25:46.939Z,6.39
2019-02-19T00:28:16.044Z,6.16
2019-02-19T00:30:45.114Z,6.26
2019-02-19T00:33:14.226Z,6.22
2019-02-19T00:35:43.297Z,6.14
2019-02-19T00:38:12.396Z,6.08
2019-02-19T00:40:41.483Z,5.84
2019-02-19T00:43:10.584Z,5.96
2019-02-19T00:45:39.665Z,6.07
2019-02-19T00:48:08.783Z,6.13
2019-02-19T00:50:37.858Z,6.00
2019-02-19T00:53:06.952Z,6.03
2019-02-19T00:55:36.039Z,5.85
2019-02-19T00:58:05.145Z,5.98
2019-02-19T01:00:34.220Z,5.81
2019-02-19T01:03:03.340Z,6.11
2019-02-19T01:05:32.417Z,6.09
2019-02-19T01:08:01.509Z,6.06
2019-02-19T01:10:30.585Z,6.13
2019-02-19T01:12:59.685Z,6.02
2019-02-19T01:15:28.762Z,6.10
2019-02-19T01:17:57.857Z,6.03
2019-02-19T01:20:26.933Z,6.15
2019-02-19T01:22:56.032Z,6.04
2019-02-19T01:25:25.144Z,6.27
2019-02-19T01:27:54.239Z,6.26
2019-02-19T01:30:23.316Z,6.16
2019-02-19T01:32:52.417Z,6.12
2019-02-19T01:35:21.489Z,6.14
2019-02-19T01:37:50.599Z,6.10
2019-02-19T01:40:19.675Z,6.27
2019-02-19T01:42:48.755Z,6.11
2019-02-19T01:45:17.855Z,6.26
2019-02-19T01:47:46.970Z,6.34
2019-02-19T01:50:16.073Z,6.33
2019-02-19T01:52:45.163Z,6.34
2019-02-19T01:55:14.273Z,6.24
2019-02-19T01:57:43.345Z,6.24
2019-02-19T02:00:12.451Z,6.24
2019-02-19T02:02:41.530Z,6.18
2019-02-19T02:05:10.620Z,6.14
2019-02-19T02:07:39.701Z,6.13
2019-02-19T02:10:08.798Z,6.06
2019-02-19T02:12:37.877Z,6.11
2019-02-19T02:15:07.349Z,6.19
2019-02-19T02:17:36.426Z,6.24
2019-02-19T02:20:05.726Z,6.13
2019-02-19T02:22:34.803Z,6.11
2019-02-19T02:25:03.906Z,5.93
2019-02-19T02:27:32.982Z,5.99
2019-02-19T02:30:02.077Z,6.21
2019-02-19T02:32:31.152Z,6.14
2019-02-19T02:35:00.254Z,6.16
2019-02-19T02:37:29.330Z,6.15
2019-02-19T02:39:58.425Z,6.13
2019-02-19T02:42:27.506Z,5.98
2019-02-19T02:44:56.600Z,5.86
2019-02-19T02:47:25.706Z,5.99
2019-02-19T02:49:54.802Z,5.99
2019-02-19T02:52:23.874Z,5.92
2019-02-19T02:54:52.981Z,5.91
2019-02-19T02:57:22.069Z,5.95
2019-02-19T02:59:51.166Z,6.02
2019-02-19T03:02:20.255Z,5.96
2019-02-19T03:04:49.343Z,6.08
2019-02-19T03:07:26.293Z,6.03
2019-02-19T03:09:55.381Z,6.10
2019-02-19T03:12:24.569Z,6.05
2019-02-19T03:14:53.654Z,6.18
2019-02-19T03:17:22.750Z,6.17
2019-02-19T03:19:51.830Z,6.26
2019-02-19T03:22:20.935Z,6.17
2019-02-19T03:24:50.019Z,6.21
2019-02-19T03:27:19.124Z,6.10
2019-02-19T03:29:48.194Z,6.18
2019-02-19T03:32:17.295Z,6.20
2019-02-19T03:34:46.376Z,6.13
2019-02-19T03:37:15.465Z,6.05
2019-02-19T03:39:44.532Z,6.07
2019-02-19T03:42:13.631Z,6.04
2019-02-19T03:44:42.708Z,6.11
2019-02-19T03:47:11.842Z,6.08
2019-02-19T03:49:40.948Z,6.04
2019-02-19T03:52:10.049Z,6.00
2019-02-19T03:54:39.118Z,5.95
2019-02-19T03:57:08.213Z,6.07
2019-02-19T03:59:37.296Z,6.01
2019-02-19T04:02:06.393Z,6.07
2019-02-19T04:04:35.470Z,6.33
2019-02-19T04:07:04.548Z,6.27
2019-02-19T04:09:33.646Z,6.26
2019-02-19T04:12:02.724Z,6.30
2019-02-19T04:14:31.841Z,6.43
2019-02-19T04:17:00.913Z,6.36
2019-02-19T04:19:30.013Z,6.42
2019-02-19T04:21:59.085Z,6.15
2019-02-19T04:24:28.189Z,6.07
2019-02-19T04:26:57.276Z,5.93
2019-02-19T04:29:26.375Z,6.01
2019-02-19T04:31:55.453Z,5.98
2019-02-19T04:34:24.555Z,6.00
2019-02-19T04:36:53.639Z,6.00
2019-02-19T04:39:22.735Z,6.16
2019-02-19T04:41:51.816Z,6.20
2019-02-19T04:44:20.917Z,6.26
2019-02-19T04:46:50.003Z,6.22
2019-02-19T04:49:19.130Z,6.24
2019-02-19T04:51:48.206Z,6.19
2019-02-19T04:54:17.321Z,6.23
2019-02-19T04:56:46.398Z,6.28
2019-02-19T04:59:15.514Z,5.88
2019-02-19T05:01:44.586Z,5.68
2019-02-19T05:04:13.672Z,5.67
2019-02-19T05:06:42.769Z,5.65
2019-02-19T05:09:11.846Z,5.68
2019-02-19T05:11:40.948Z,5.68
2019-02-19T05:14:10.028Z,5.65
2019-02-19T05:16:40.966Z,5.71
2019-02-19T05:19:09.932Z,5.72
2019-02-19T05:21:39.037Z,5.69
2019-02-19T05:24:08.306Z,5.63
2019-02-19T05:26:37.462Z,5.52
2019-02-19T05:29:06.582Z,5.47
2019-02-19T05:31:35.687Z,5.43
2019-02-19T05:34:04.786Z,5.39
2019-02-19T05:36:33.879Z,5.58
2019-02-19T05:39:02.990Z,5.62
2019-02-19T05:41:32.094Z,5.68
2019-02-19T05:44:01.174Z,5.76
2019-02-19T05:46:30.291Z,5.84
2019-02-19T05:48:59.389Z,5.91
2019-02-19T05:51:28.497Z,5.90
2019-02-19T05:53:57.572Z,5.93
2019-02-19T05:56:26.654Z,5.97
2019-02-19T05:58:55.757Z,6.00
2019-02-19T06:01:24.838Z,6.01
2019-02-19T06:03:53.940Z,5.96
2019-02-19T06:06:23.023Z,5.99
2019-02-19T06:08:52.128Z,5.99
2019-02-19T06:11:21.212Z,5.83
2019-02-19T06:13:50.326Z,5.76
2019-02-19T06:16:19.409Z,5.71
2019-02-19T06:18:48.515Z,5.52
2019-02-19T06:21:17.603Z,5.52
2019-02-19T06:23:46.695Z,5.42
2019-02-19T06:26:15.779Z,5.43
2019-02-19T06:28:44.885Z,5.38
2019-02-19T06:31:13.971Z,5.53
2019-02-19T06:33:43.084Z,5.37
2019-02-19T06:36:12.157Z,5.34
2019-02-19T06:38:41.260Z,5.36
2019-02-19T06:41:10.339Z,5.31
2019-02-19T06:43:39.437Z,5.27
2019-02-19T06:46:08.526Z,5.30
2019-02-19T06:48:37.660Z,5.24
2019-02-19T06:51:06.748Z,5.20
2019-02-19T06:53:35.851Z,5.16
2019-02-19T06:56:04.939Z,5.12
2019-02-19T06:58:34.048Z,5.12
2019-02-19T07:01:03.130Z,5.06
2019-02-19T07:03:40.331Z,5.06
2019-02-19T07:06:09.410Z,5.07
2019-02-19T07:08:38.785Z,5.11
2019-02-19T07:11:07.866Z,5.03
2019-02-19T07:13:36.959Z,5.09
2019-02-19T07:16:06.063Z,5.09
2019-02-19T07:18:35.145Z,5.07
2019-02-19T07:21:04.260Z,5.02
2019-02-19T07:23:33.351Z,5.03
2019-02-19T07:26:02.457Z,5.32
2019-02-19T07:28:31.573Z,5.35
2019-02-19T07:31:00.678Z,5.23
2019-02-19T07:33:29.778Z,5.27
2019-02-19T07:35:58.897Z,5.37
2019-02-19T07:38:27.977Z,5.31
2019-02-19T07:40:57.079Z,5.28
2019-02-19T07:43:26.164Z,5.25
2019-02-19T07:45:55.276Z,5.18
2019-02-19T07:48:24.375Z,5.17
2019-02-19T07:50:53.482Z,5.18
2019-02-19T07:53:22.567Z,5.17
2019-02-19T07:55:51.684Z,5.20
2019-02-19T07:58:20.771Z,5.39
2019-02-19T08:00:49.890Z,5.15
2019-02-19T08:03:18.977Z,5.17
2019-02-19T08:05:48.085Z,5.22
2019-02-19T08:08:17.168Z,5.30
2019-02-19T08:10:46.254Z,5.49
2019-02-19T08:13:15.381Z,5.57
2019-02-19T08:15:44.453Z,5.49
2019-02-19T08:18:13.556Z,5.61
2019-02-19T08:20:42.654Z,5.70
2019-02-19T08:23:11.757Z,5.75
2019-02-19T08:25:40.867Z,5.75
2019-02-19T08:28:09.960Z,5.84
2019-02-19T08:30:39.053Z,5.84
2019-02-19T08:33:08.164Z,6.00
2019-02-19T08:35:37.251Z,6.14
2019-02-19T08:38:06.365Z,6.26
2019-02-19T08:40:35.447Z,6.34
2019-02-19T08:43:04.561Z,6.54
2019-02-19T08:45:33.639Z,6.76
2019-02-19T08:48:02.774Z,6.55
2019-02-19T08:50:31.933Z,6.55
2019-02-19T08:53:00.992Z,6.54
2019-02-19T08:55:30.080Z,6.82
2019-02-19T08:57:59.190Z,6.90
2019-02-19T09:00:28.370Z,7.07
2019-02-19T09:02:57.483Z,7.08
2019-02-19T09:05:26.568Z,7.36
2019-02-19T09:07:55.655Z,7.36
2019-02-19T09:10:24.765Z,7.49
2019-02-19T09:12:53.854Z,7.70
2019-02-19T09:15:22.960Z,7.65
2019-02-19T09:17:52.446Z,7.33
2019-02-19T09:20:21.535Z,7.37
2019-02-19T09:22:50.624Z,6.94
2019-02-19T09:25:19.731Z,6.91
2019-02-19T09:27:48.811Z,7.08
2019-02-19T09:30:17.918Z,7.18
2019-02-19T09:32:47.007Z,7.23
2019-02-19T09:35:16.113Z,7.87
2019-02-19T09:37:45.200Z,7.94
2019-02-19T09:40:14.298Z,7.89
2019-02-19T09:42:43.390Z,7.53
2019-02-19T09:45:12.603Z,7.74
2019-02-19T09:47:41.696Z,7.51
2019-02-19T09:50:10.845Z,7.55
2019-02-19T09:52:39.927Z,7.17
2019-02-19T09:55:09.043Z,6.83
2019-02-19T09:57:38.136Z,7.03
2019-02-19T10:00:08.913Z,6.94
2019-02-19T10:02:38.003Z,7.09
2019-02-19T10:05:08.574Z,7.32
2019-02-19T10:07:37.661Z,7.12
2019-02-19T10:10:08.966Z,6.93
2019-02-19T10:12:38.072Z,7.29
2019-02-19T10:15:07.923Z,7.18
2019-02-19T10:17:37.005Z,7.20
2019-02-19T10:20:06.485Z,6.96
2019-02-19T10:22:35.588Z,7.12
2019-02-19T10:25:05.020Z,7.10
2019-02-19T10:27:34.127Z,7.00
2019-02-19T10:30:03.226Z,7.16
2019-02-19T10:32:32.337Z,7.41
2019-02-19T10:35:01.414Z,7.31
2019-02-19T10:37:30.524Z,7.47
2019-02-19T10:39:59.606Z,7.26
2019-02-19T10:42:28.728Z,6.98
2019-02-19T10:44:57.811Z,7.25
2019-02-19T10:47:26.931Z,7.35
2019-02-19T10:49:56.040Z,7.78
2019-02-19T10:52:25.150Z,8.14
2019-02-19T10:54:54.240Z,8.32
2019-02-19T10:57:23.354Z,8.46
2019-02-19T10:59:52.433Z,8.72
2019-02-19T11:02:21.540Z,9.18
2019-02-19T11:04:50.626Z,9.47
2019-02-19T11:07:19.733Z,9.77
2019-02-19T11:09:48.831Z,11.09
2019-02-19T11:12:17.950Z,12.62
2019-02-19T11:14:47.040Z,13.18
2019-02-19T11:17:16.151Z,13.89
2019-02-19T11:19:45.250Z,16.93
2019-02-19T11:22:14.361Z,18.61
2019-02-19T11:24:43.453Z,17.57
2019-02-19T11:27:12.551Z,20.30
2019-02-19T11:29:41.647Z,19.10
2019-02-19T11:32:10.726Z,16.40
2019-02-19T11:34:39.857Z,16.84
2019-02-19T11:37:08.951Z,16.31
2019-02-19T11:39:38.053Z,17.17
2019-02-19T11:42:07.135Z,16.37
2019-02-19T11:44:36.243Z,15.81
2019-02-19T11:47:05.328Z,14.38
2019-02-19T11:49:34.468Z,14.60
2019-02-19T11:52:03.547Z,16.79
2019-02-19T11:54:32.651Z,19.02
2019-02-19T11:57:01.728Z,19.39
2019-02-19T11:59:31.287Z,19.57
2019-02-19T12:02:01.543Z,17.36
2019-02-19T12:04:30.645Z,18.11
2019-02-19T12:06:59.732Z,18.90
2019-02-19T12:09:28.826Z,18.41
2019-02-19T12:11:57.908Z,18.25
2019-02-19T12:14:27.007Z,17.70
2019-02-19T12:16:56.088Z,19.18
2019-02-19T12:19:25.194Z,18.12
2019-02-19T12:21:54.282Z,16.58
2019-02-19T12:24:23.378Z,18.18
2019-02-19T12:26:52.464Z,19.45
2019-02-19T12:29:21.570Z,17.35
2019-02-19T12:31:50.667Z,20.12
2019-02-19T12:34:19.810Z,19.33
2019-02-19T12:36:48.869Z,20.85
2019-02-19T12:39:17.953Z,20.50
2019-02-19T12:41:47.058Z,18.26
2019-02-19T12:44:16.143Z,18.95
2019-02-19T12:46:45.252Z,18.79
2019-02-19T12:49:16.370Z,17.57
2019-02-19T12:51:45.183Z,20.31
2019-02-19T12:54:14.266Z,19.23
2019-02-19T12:56:43.371Z,18.59
2019-02-19T12:59:12.465Z,18.53
2019-02-19T13:01:41.562Z,18.28
2019-02-19T13:04:10.651Z,18.18
2019-02-19T13:06:39.764Z,14.69
2019-02-19T13:09:09.255Z,13.03
2019-02-19T13:11:38.371Z,11.68
2019-02-19T13:14:07.462Z,11.27
2019-02-19T13:16:36.566Z,14.79
2019-02-19T13:19:05.657Z,17.64
2019-02-19T13:21:34.758Z,18.10
2019-02-19T13:24:03.837Z,19.77
2019-02-19T13:26:32.972Z,19.89
2019-02-19T13:29:02.046Z,18.83
2019-02-19T13:31:31.169Z,17.01
2019-02-19T13:34:00.251Z,18.20
2019-02-19T13:36:29.330Z,18.67
2019-02-19T13:38:58.442Z,17.45
2019-02-19T13:41:27.520Z,14.93
2019-02-19T13:43:56.635Z,11.89
2019-02-19T13:46:25.721Z,11.82
2019-02-19T13:48:54.859Z,14.10
2019-02-19T13:51:24.017Z,16.01
2019-02-19T13:53:57.464Z,15.17
2019-02-19T13:56:26.551Z,15.54
2019-02-19T13:58:55.660Z,17.74
2019-02-19T14:01:24.733Z,17.24
2019-02-19T14:03:53.844Z,17.94
2019-02-19T14:06:22.927Z,16.99
2019-02-19T14:08:52.033Z,16.68
2019-02-19T14:11:21.127Z,17.35
2019-02-19T14:14:00.380Z,18.08
2019-02-19T14:16:34.891Z,16.93
2019-02-19T14:19:08.890Z,17.89
2019-02-19T14:22:01.024Z,16.47
2019-02-19T14:24:57.489Z,15.91
2019-02-19T14:27:33.408Z,15.50
2019-02-19T14:30:39.530Z,15.43
2019-02-19T14:33:33.640Z,16.46
2019-02-19T14:36:20.153Z,15.96
2019-02-19T14:39:20.446Z,15.97
2019-02-19T14:42:20.490Z,17.08
2019-02-19T14:45:20.722Z,15.54
2019-02-19T14:48:26.814Z,15.93
2019-02-19T14:51:14.574Z,15.66
2019-02-19T14:54:20.819Z,15.35
2019-02-19T14:56:59.560Z,15.40
2019-02-19T14:59:47.673Z,15.19
2019-02-19T15:02:34.177Z,14.94
2019-02-19T15:05:20.957Z,15.91
2019-02-19T15:08:10.979Z,15.66
2019-02-19T15:11:02.155Z,14.50
2019-02-19T15:13:47.273Z,15.51
2019-02-19T15:16:47.206Z,15.73
2019-02-19T15:19:40.091Z,14.25
2019-02-19T15:22:25.364Z,14.38
2019-02-19T15:25:07.059Z,14.67
2019-02-19T15:28:01.065Z,14.63
2019-02-19T15:30:58.065Z,14.06
2019-02-19T15:33:44.870Z,14.86
2019-02-19T15:36:39.089Z,14.63
2019-02-19T15:39:25.753Z,13.89
2019-02-19T15:42:04.958Z,13.97
2019-02-19T15:44:46.805Z,14.68
2019-02-19T15:47:49.793Z,14.34
2019-02-19T15:50:36.284Z,14.34
2019-02-19T15:53:39.370Z,13.91
2019-02-19T15:56:27.445Z,13.37
2019-02-19T15:59:15.536Z,13.22
2019-02-19T16:02:06.694Z,12.46
2019-02-19T16:04:54.791Z,12.06
2019-02-19T16:07:36.213Z,11.77
2019-02-19T16:10:22.776Z,10.97
2019-02-19T16:13:02.362Z,10.11
2019-02-19T16:15:48.350Z,9.61
2019-02-19T16:18:36.441Z,9.42
2019-02-19T16:21:23.293Z,9.09
2019-02-19T16:24:08.482Z,8.87
2019-02-19T16:27:01.725Z,8.90
2019-02-19T16:29:58.612Z,8.70
2019-02-19T16:32:45.971Z,8.67
2019-02-19T16:35:32.764Z,8.43
2019-02-19T16:38:23.887Z,8.27
2019-02-19T16:41:11.986Z,8.09
2019-02-19T16:44:01.055Z,8.15
2019-02-19T16:46:47.917Z,7.82
2019-02-19T16:49:45.935Z,7.79
2019-02-19T16:52:25.293Z,7.74
2019-02-19T16:55:16.601Z,7.64
2019-02-19T16:57:51.078Z,7.59
2019-02-19T17:00:39.164Z,7.38
2019-02-19T17:03:30.390Z,7.28
2019-02-19T17:06:18.485Z,7.26
2019-02-19T17:09:00.731Z,7.09
2019-02-19T17:11:40.507Z,7.08
2019-02-19T17:14:33.298Z,6.91
2019-02-19T17:17:21.657Z,6.83
2019-02-19T17:20:28.952Z,6.79
2019-02-19T17:22:58.534Z,6.57
2019-02-19T17:25:43.017Z,6.70
2019-02-19T17:28:30.029Z,6.52
2019-02-19T17:31:17.675Z,6.49
2019-02-19T17:34:11.569Z,6.39
2019-02-19T17:36:47.599Z,6.29
2019-02-19T17:39:21.836Z,6.28
2019-02-19T17:42:04.178Z,6.18
2019-02-19T17:44:39.282Z,6.15
2019-02-19T17:47:26.064Z,6.15
2019-02-19T17:50:08.859Z,6.04
2019-02-19T17:52:55.624Z,6.08
2019-02-19T17:55:49.778Z,6.08
2019-02-19T17:58:41.117Z,5.99
2019-02-19T18:01:19.515Z,6.06
2019-02-19T18:04:06.267Z,5.87
2019-02-19T18:06:48.915Z,5.88
2019-02-19T18:09:43.623Z,5.79
2019-02-19T18:12:31.714Z,5.72
2019-02-19T18:15:18.192Z,5.69
2019-02-19T18:18:18.139Z,5.66
2019-02-19T18:20:47.959Z,5.53
2019-02-19T18:23:17.121Z,5.35
2019-02-19T18:25:46.322Z,5.43
2019-02-19T18:28:15.424Z,5.41
2019-02-19T18:30:44.514Z,5.44
2019-02-19T18:33:13.624Z,5.48
2019-02-19T18:35:42.705Z,5.37
2019-02-19T18:38:11.825Z,5.12
2019-02-19T18:40:40.919Z,4.99
2019-02-19T18:43:10.019Z,5.01
2019-02-19T18:45:39.112Z,5.02
2019-02-19T18:48:08.195Z,4.78
2019-02-19T18:50:37.330Z,4.58
2019-02-19T18:53:06.415Z,4.47
2019-02-19T18:55:35.516Z,4.31
2019-02-19T18:58:04.599Z,4.50
2019-02-19T19:00:33.944Z,4.33
2019-02-19T19:03:03.026Z,4.15
2019-02-19T19:05:32.132Z,4.02
2019-02-19T19:08:02.969Z,4.14
2019-02-19T19:10:34.897Z,4.23
2019-02-19T19:13:05.658Z,4.10
2019-02-19T19:15:35.717Z,4.13
2019-02-19T19:18:06.087Z,4.18
2019-02-19T19:20:38.418Z,4.21
2019-02-19T19:23:09.294Z,4.19
2019-02-19T19:25:39.594Z,4.18
2019-02-19T19:28:09.760Z,4.27
2019-02-19T19:30:42.677Z,4.31
2019-02-19T19:33:16.563Z,4.48
2019-02-19T19:35:49.781Z,4.36
2019-02-19T19:38:20.152Z,4.26
2019-02-19T19:40:51.595Z,4.30
2019-02-19T19:43:23.128Z,4.39
2019-02-19T19:45:53.369Z,4.37
2019-02-19T19:48:28.655Z,4.23
2019-02-19T19:50:59.965Z,4.36
2019-02-19T19:53:32.485Z,4.35
2019-02-19T19:56:02.618Z,4.52
2019-02-19T19:58:32.876Z,4.59
2019-02-19T20:01:04.065Z,4.61
2019-02-19T20:03:33.921Z,4.59
2019-02-19T20:06:03.000Z,4.65
2019-02-19T20:08:32.104Z,4.56
2019-02-19T20:11:01.188Z,4.61
2019-02-19T20:13:30.293Z,4.60
2019-02-19T20:15:59.380Z,4.43
2019-02-19T20:18:28.494Z,4.62
2019-02-19T20:20:57.569Z,4.36
2019-02-19T20:23:26.671Z,4.35
2019-02-19T20:25:55.760Z,4.18
2019-02-19T20:28:24.879Z,4.15
2019-02-19T20:30:53.980Z,3.95
2019-02-19T20:33:23.098Z,4.09
2019-02-19T20:35:52.173Z,4.05
2019-02-19T20:38:21.289Z,4.07
2019-02-19T20:40:50.384Z,3.94
2019-02-19T20:43:19.491Z,4.07
2019-02-19T20:45:48.575Z,3.90
2019-02-19T20:48:17.686Z,3.91
2019-02-19T20:50:46.800Z,3.75
2019-02-19T20:53:15.880Z,3.75
2019-02-19T20:55:44.985Z,3.73
2019-02-19T20:58:14.073Z,3.63
2019-02-19T21:00:43.184Z,3.61
2019-02-19T21:03:12.278Z,3.53
2019-02-19T21:05:41.379Z,3.78
2019-02-19T21:08:10.472Z,3.83
2019-02-19T21:10:39.566Z,3.78
2019-02-19T21:13:08.641Z,3.75
2019-02-19T21:15:37.750Z,3.98
2019-02-19T21:18:06.825Z,3.92
2019-02-19T21:20:35.921Z,3.98
2019-02-19T21:23:05.006Z,3.82
2019-02-19T21:25:34.123Z,3.68
2019-02-19T21:28:03.219Z,3.64
2019-02-19T21:30:32.321Z,3.69
2019-02-19T21:33:01.403Z,3.64
2019-02-19T21:35:30.523Z,3.50
2019-02-19T21:37:59.611Z,3.48
2019-02-19T21:40:28.967Z,3.41
2019-02-19T21:42:58.051Z,3.42
2019-02-19T21:45:27.534Z,3.40
2019-02-19T21:47:56.630Z,3.26
2019-02-19T21:50:25.734Z,3.00
2019-02-19T21:52:54.832Z,2.96
2019-02-19T21:55:23.907Z,2.84
2019-02-19T21:57:53.004Z,2.78
2019-02-19T22:00:22.640Z,2.57
2019-02-19T22:02:51.739Z,2.43
2019-02-19T22:05:20.823Z,2.41
2019-02-19T22:07:49.920Z,2.26
2019-02-19T22:10:19.000Z,2.18
2019-02-19T22:12:48.106Z,2.15
2019-02-19T22:15:17.187Z,2.28
2019-02-19T22:17:46.285Z,2.19
2019-02-19T22:20:32.845Z,2.01
2019-02-19T22:23:01.950Z,1.87
2019-02-19T22:25:31.034Z,1.94
2019-02-19T22:28:00.142Z,1.76
2019-02-19T22:30:29.219Z,1.73
2019-02-19T22:32:58.321Z,1.68
2019-02-19T22:35:27.411Z,1.58
2019-02-19T22:37:56.529Z,1.66
2019-02-19T22:40:25.622Z,1.56
2019-02-19T22:42:54.736Z,1.47
2019-02-19T22:45:23.814Z,1.37
2019-02-19T22:47:53.686Z,1.16
2019-02-19T22:50:22.923Z,1.07
2019-02-19T22:52:51.991Z,0.93
2019-02-19T22:55:38.471Z,0.81
2019-02-19T22:58:07.558Z,0.76
2019-02-19T23:00:58.495Z,0.63
2019-02-19T23:03:27.608Z,0.60
2019-02-19T23:05:56.673Z,0.61
2019-02-19T23:08:25.752Z,0.46
2019-02-19T23:10:54.849Z,0.31
2019-02-19T23:13:23.924Z,0.33
2019-02-19T23:15:53.030Z,0.27
2019-02-19T23:18:22.104Z,0.24
2019-02-19T23:20:51.204Z,0.11
2019-02-19T23:23:20.284Z,0.13
2019-02-19T23:25:49.382Z,0.05
2019-02-19T23:28:18.454Z,0.17
2019-02-19T23:30:47.559Z,0.23
2019-02-19T23:33:16.629Z,0.22
2019-02-19T23:35:52.532Z,0.16
2019-02-19T23:38:21.619Z,0.30
2019-02-19T23:40:50.745Z,0.30
2019-02-19T23:43:19.818Z,0.12
2019-02-19T23:45:48.917Z,0.17
2019-02-19T23:48:17.997Z,0.12
2019-02-19T23:50:47.127Z,0.12
2019-02-19T23:53:16.218Z,0.17
2019-02-19T23:55:45.328Z,0.03
2019-02-19T23:58:14.408Z,0.00
